| Place | Name | Time | Raw score | Score |
|---|---|---|---|---|
| 1 | -DarkLlama- | 1:01.31 | 1,000 | 381 |
| 2 | JnvSor | 1:06.99 | 900 | 343 |
| 3 | Freud | 1:08.12 | 859 | 328 |
| 4 | Brionac | 1:08.89 | 827 | 315 |
| 5 | slug ʕ●.●ʔ | 1:09.86 | 800 | 305 |
| 6 | Backgrounds' | 1:11.88 | 777 | 296 |
| 7 | Seinah | 1:15.00 | 756 | 288 |
| 8 | Waonder | 1:16.82 | 736 | 281 |
| 9 | Wourder | 1:19.58 | 718 | 274 |
| 10 | Carl | 1:27.16 | 700 | 267 |
| 11 | Predatory_Balloon | 1:29.04 | 684 | 261 |
| 12 | Formidable | 1:29.14 | 669 | 255 |
| 13 | OMANEYE | 1:32.40 | 654 | 249 |
| 14 | Sidewinder Fang | 1:32.93 | 640 | 244 |
| 14 | Dreigo | 1:32.93 | 640 | 244 |
| 16 | what the fuck ever | 1:33.79 | 613 | 234 |
| 17 | mobi | 1:34.21 | 600 | 229 |
| 18 | Zany | 1:34.74 | 588 | 224 |
| 19 | Californ1a | 1:34.81 | 576 | 220 |
| 20 | Tribow | 1:35.00 | 565 | 215 |
| 21 | Chase | 1:35.02 | 553 | 211 |
| 22 | Wipeout! | 1:35.05 | 542 | 207 |
| 23 | Thermos | 1:35.06 | 531 | 203 |
| 24 | ADamnDerpName | 1:35.34 | 521 | 199 |
| 25 | VinLAURiA | 1:35.45 | 511 | 195 |
| 26 | notguts | 1:35.49 | 500 | 191 |
| 27 | XiQu3sT | 1:35.71 | 491 | 187 |
| 28 | Ebeta2 | 1:35.72 | 481 | 183 |
| 29 | Negator | 1:35.73 | 471 | 180 |
| 30 | Semtex4ya | 1:35.94 | 462 | 176 |
| 31 | DefenderOfHyrule | 1:36.08 | 453 | 173 |
| 32 | TheEPROM9 LaTeX | 1:36.14 | 444 | 169 |
| 33 | g.brincks | 1:36.19 | 435 | 166 |
| 34 | Sniggles | 1:36.20 | 426 | 162 |
| 35 | Alrunes | 1:36.29 | 417 | 159 |
| 36 | Azure Zakura | 1:36.36 | 409 | 156 |
| 37 | Krispy | 1:36.40 | 400 | 153 |
| 38 | PineFreshGuy | 1:36.49 | 392 | 150 |
| 39 | starshift | 1:36.56 | 384 | 146 |
| 40 | Erik | 1:36.63 | 376 | 143 |
| 41 | The Advisor | 1:36.68 | 368 | 140 |
| 42 | mcatooch | 1:36.72 | 360 | 137 |
| 43 | Wedel25 | 1:36.73 | 352 | 134 |
| 44 | RetaliationGuy YT | 1:36.77 | 345 | 132 |
| 45 | 🌈 Rhys | 1:36.82 | 337 | 129 |
| 46 | Ennik | 1:36.84 | 330 | 126 |
| 47 | Verdor | 1:36.85 | 322 | 123 |
| 48 | kashyyyke | 1:36.88 | 315 | 120 |
| 49 | i0nTempest | 1:36.91 | 308 | 117 |
| 50 | Earth's Retarded Cousin | 1:36.94 | 300 | 114 |
| 51 | LobaDK | 1:36.99 | 293 | 112 |
| 52 | Yarimi | 1:37.02 | 286 | 109 |
| 53 | FluffyTheZombii | 1:37.05 | 279 | 106 |
| 53 | The Good Gaming Dragon | 1:37.05 | 279 | 106 |
| 55 | Paparazzi | 1:37.10 | 266 | 101 |
| 56 | Un Boeuf | 1:37.13 | 259 | 99 |
| 57 | SX64 | 1:37.14 | 252 | 96 |
| 58 | Eagl3 | 1:37.15 | 246 | 94 |
| 59 | M500 | 1:37.20 | 239 | 91 |
| 60 | Muggestutz | 1:37.22 | 232 | 88 |
| 61 | Minecraft-pro | 1:37.26 | 226 | 86 |
| 62 | Alopex | 1:37.33 | 219 | 84 |
| 63 | kriz_chan | 1:37.51 | 213 | 81 |
| 64 | Not a Clever Pony | 1:37.55 | 207 | 79 |
| 65 | posture check | 1:37.65 | 200 | 76 |
| 66 | Nitrium | 1:37.70 | 194 | 74 |
| 67 | Akirro | 1:37.71 | 188 | 72 |
| 68 | The Unusual Suspect | 1:37.75 | 182 | 69 |
| 68 | PathToV1ctory | 1:37.75 | 182 | 69 |
| 70 | TinFoilMkIV | 1:37.78 | 170 | 65 |
| 71 | Ferreus | 1:37.79 | 164 | 63 |
| 72 | Ravicale | 1:37.82 | 158 | 60 |
| 73 | Nero | 1:37.87 | 152 | 58 |
| 74 | Gloþ | 1:37.91 | 146 | 56 |
| 75 | Vulduv | 1:37.94 | 140 | 53 |
| 76 | Pompous Whale | 1:37.97 | 134 | 51 |
| 77 | The Big Purple | 1:37.98 | 129 | 49 |
| 78 | Tobastin | 1:37.99 | 123 | 47 |
| 78 | Overlord | 1:37.99 | 123 | 47 |
| 80 | Maxter Max | 1:38.03 | 112 | 43 |
| 81 | Nico | 1:38.08 | 106 | 40 |
| 82 | ... | 1:38.13 | 100 | 38 |
| 83 | JayBoneJay | 1:38.17 | 95 | 36 |
| 84 | Winter's Crescendo | 1:38.23 | 89 | 34 |
| 85 | Vencer | 1:38.24 | 84 | 32 |
| 86 | Terr4 | 1:38.25 | 79 | 30 |
| 87 | MrMister | 1:38.26 | 73 | 28 |
| 88 | Ungarr | 1:38.27 | 68 | 26 |
| 89 | Bistdocs | 1:38.29 | 62 | 24 |
| 90 | LunarStarlight | 1:38.31 | 57 | 22 |
| 91 | TheEvilMidnightBomber | 1:38.32 | 52 | 20 |
| 92 | Bridge | 1:38.37 | 47 | 18 |
| 92 | matheus paiva | 1:38.37 | 47 | 18 |
| 94 | Unlight369 | 1:38.40 | 36 | 14 |
| 95 | The Blue Fox | 1:38.46 | 31 | 12 |
| 96 | snugglebottom | 1:38.48 | 26 | 10 |
| 97 | succe | 1:38.55 | 21 | 8 |
| 98 | [deleted] | 1:38.57 | 16 | 6 |
| 98 | 25 минут кайфа | 1:38.57 | 16 | 6 |
| 100 | Homulilly (Witch) | 1:38.58 | 6 | 2 |
| 101 | LegoRJ35 | 1:38.60 | 0 | 0 |
| 102 | Curious Fish | 1:38.64 | 0 | 0 |
| 102 | IllKIllU | 1:38.64 | 0 | 0 |
| 104 | rocketdriverexp | 1:38.65 | 0 | 0 |
| 105 | BlobMonster | 1:38.68 | 0 | 0 |
| 106 | TheMelonGod | 1:38.74 | 0 | 0 |
| 107 | GabrielLivesHere | 1:38.75 | 0 | 0 |
| 108 | Moonie | 1:38.79 | 0 | 0 |
| 109 | Vash | 1:38.80 | 0 | 0 |
| 110 | bogdan8938 | 1:38.85 | 0 | 0 |
| 111 | Sappytron | 1:38.86 | 0 | 0 |
| 112 | Гвоздь | 1:38.87 | 0 | 0 |
| 112 | Macinteuch Plus | 1:38.87 | 0 | 0 |
| 114 | Beastmaster 64 | 1:38.89 | 0 | 0 |
| 115 | Waltuh White | 1:38.90 | 0 | 0 |
| 116 | Super_Shadow57 | 1:38.91 | 0 | 0 |
| 117 | codename_rb | 1:38.98 | 0 | 0 |
| 118 | E0N | 1:38.99 | 0 | 0 |
| 119 | Tkach | 1:39.03 | 0 | 0 |
| 120 | Swash | 1:39.07 | 0 | 0 |
| 121 | lfighter | 1:39.08 | 0 | 0 |
| 122 | superbperson | 1:39.09 | 0 | 0 |
| 122 | Sunny | 1:39.09 | 0 | 0 |
| 124 | Beskar | 1:39.13 | 0 | 0 |
| 125 | < blank > | 1:39.15 | 0 | 0 |
| 126 | G9 | 1:39.19 | 0 | 0 |
| 126 | Roboraser | 1:39.19 | 0 | 0 |
| 128 | BlackSheepSpicy | 1:39.29 | 0 | 0 |
| 129 | Dorphan | 1:39.30 | 0 | 0 |
| 130 | Neko14789 | 1:39.31 | 0 | 0 |
| 131 | Dimitri | 1:39.37 | 0 | 0 |
| 131 | Mongà Mongà | 1:39.37 | 0 | 0 |
| 131 | A Moldy Orange | 1:39.37 | 0 | 0 |
| 134 | CodedCrow | 1:39.38 | 0 | 0 |
| 135 | Chakkra_Skip | 1:39.41 | 0 | 0 |
| 136 | Redsrule | 1:39.47 | 0 | 0 |
| 136 | Amuzet | 1:39.47 | 0 | 0 |
| 138 | Orion | 1:39.50 | 0 | 0 |
| 138 | Gyodesis | 1:39.50 | 0 | 0 |
| 140 | Kincaid | 1:39.54 | 0 | 0 |
| 141 | delfiler | 1:39.62 | 0 | 0 |
| 142 | Shady Inktail | 1:39.66 | 0 | 0 |
| 143 | e⁻ | 1:39.68 | 0 | 0 |
| 143 | Qioury | 1:39.68 | 0 | 0 |
| 143 | TheGamingAnt55 | 1:39.68 | 0 | 0 |
| 146 | JacquetheRipper | 1:39.69 | 0 | 0 |
| 146 | NicholasKB19 | 1:39.69 | 0 | 0 |
| 148 | Rombommind | 1:39.70 | 0 | 0 |
| 149 | But we're both girls! | 1:39.73 | 0 | 0 |
| 149 | [TSA] Siggi | 1:39.73 | 0 | 0 |
| 149 | Cathy | 1:39.73 | 0 | 0 |
| 152 | ENOLA | 1:39.74 | 0 | 0 |
| 153 | Alex97r | 1:39.75 | 0 | 0 |
| 154 | ^1WᴀʀᴘWɪʀᴇ | 1:39.83 | 0 | 0 |
| 154 | MCrekna1 | 1:39.83 | 0 | 0 |
| 156 | Storm the Snep | 1:39.89 | 0 | 0 |
| 157 | puter #MTWD | 1:39.90 | 0 | 0 |
| 158 | jason | 1:39.97 | 0 | 0 |
| 159 | SlowScan | 1:39.98 | 0 | 0 |
| 159 | Terrapin | 1:39.98 | 0 | 0 |
| 161 | Vampire | 1:40.09 | 0 | 0 |
| 161 | UnFefeSauvage | 1:40.09 | 0 | 0 |
| 163 | NK - Néko | 1:40.11 | 0 | 0 |
| 164 | MrUnbecoming | 1:40.12 | 0 | 0 |
| 165 | NoteHeart TF R U DOIN | 1:40.15 | 0 | 0 |
| 166 | to saw a sponge bob saw | 1:40.18 | 0 | 0 |
| 167 | Agent Tahu | 1:40.24 | 0 | 0 |
| 168 | ash | 1:40.26 | 0 | 0 |
| 169 | RaiderZulu | 1:40.28 | 0 | 0 |
| 170 | Frozen Dino | 1:40.31 | 0 | 0 |
| 170 | Myogi Night | 1:40.31 | 0 | 0 |
| 170 | itsNinety_ | 1:40.31 | 0 | 0 |
| 173 | StargazerBird | 1:40.34 | 0 | 0 |
| 174 | xoid | 1:40.39 | 0 | 0 |
| 175 | Líong Phük | 1:40.40 | 0 | 0 |
| 176 | resens | 1:40.58 | 0 | 0 |
| 177 | Sky Captain | 1:40.60 | 0 | 0 |
| 178 | Prof. Pinwheel | 1:40.68 | 0 | 0 |
| 179 | Mr. Cat (Real) | 1:40.80 | 0 | 0 |
| 180 | Luminous | 1:40.86 | 0 | 0 |
| 181 | gusforester | 1:40.88 | 0 | 0 |
| 182 | pcl219 | 1:41.00 | 0 | 0 |
| 183 | Aluka Takumashiio | 1:41.01 | 0 | 0 |
| 184 | CuddleStrike | 1:41.16 | 0 | 0 |
| 185 | Squidy_Blu | 1:41.22 | 0 | 0 |
| 186 | Silver~ | 1:41.23 | 0 | 0 |
| 187 | Therio | 1:41.30 | 0 | 0 |
| 188 | grafica | 1:41.34 | 0 | 0 |
| 189 | levinv270 | 1:41.40 | 0 | 0 |
| 190 | shen | 1:41.48 | 0 | 0 |
| 191 | LachenJager | 1:41.64 | 0 | 0 |
| 191 | HeavenTrain | 1:41.64 | 0 | 0 |
| 193 | Hayden | 1:41.79 | 0 | 0 |
| 194 | Chamango | 1:41.85 | 0 | 0 |
| 195 | CygnusAutomata | 1:41.89 | 0 | 0 |
| 196 | Sickk Drifft | 1:42.00 | 0 | 0 |
| 197 | Irri | 1:42.03 | 0 | 0 |
| 198 | iHaveAwfulIdeas | 1:42.17 | 0 | 0 |
| 199 | Retyqui | 1:42.23 | 0 | 0 |
| 200 | menkaru | 1:42.26 | 0 | 0 |
| 201 | Vick | 1:42.30 | 0 | 0 |
| 202 | Tuli | 1:42.39 | 0 | 0 |
| 203 | Joan6694 | 1:42.49 | 0 | 0 |
| 203 | PenguinMafia | 1:42.49 | 0 | 0 |
| 205 | Jacsn | 1:42.61 | 0 | 0 |
| 206 | Samn | 1:42.64 | 0 | 0 |
| 207 | Lud | Forest | 1:42.73 | 0 | 0 |
| 208 | Viridus | 1:42.77 | 0 | 0 |
| 209 | BrandonK-TN | 1:42.84 | 0 | 0 |
| 210 | Dubblr | 1:42.85 | 0 | 0 |
| 211 | // Vaffe | 1:42.90 | 0 | 0 |
| 212 | CeruleanAzura | 1:42.93 | 0 | 0 |
| 213 | Unit M4-S0N | 1:43.03 | 0 | 0 |
| 213 | ZRH3H | 1:43.03 | 0 | 0 |
| 215 | Triumphant Trump (Noties Muted) | 1:43.06 | 0 | 0 |
| 216 | Void Concept | 1:43.08 | 0 | 0 |
| 217 | Renault Modus phase 2 | 1:43.13 | 0 | 0 |
| 218 | Iron_Angmar | 1:43.18 | 0 | 0 |
| 219 | Rain | 1:43.20 | 0 | 0 |
| 220 | Syntax | 1:43.27 | 0 | 0 |
| 221 | TurboTails8027 | 1:43.61 | 0 | 0 |
| 222 | s00 | 1:43.70 | 0 | 0 |
| 223 | Agent-Cryspy | 1:43.92 | 0 | 0 |
| 224 | MLGSOLAIRENOSCOPE360PRAISEIT420 | 1:43.99 | 0 | 0 |
| 224 | KnightBane | 1:43.99 | 0 | 0 |
| 226 | [deleted] | 1:44.00 | 0 | 0 |
| 227 | Crado | 1:44.13 | 0 | 0 |
| 228 | WiteNite | 1:44.20 | 0 | 0 |
| 229 | 5 LETTERS 1 WORD G.O.A.T | 1:44.22 | 0 | 0 |
| 230 | PYROM4NI4CC | 1:44.42 | 0 | 0 |
| 231 | RenZõÓ | 1:44.45 | 0 | 0 |
| 232 | Hotride | 1:44.52 | 0 | 0 |
| 233 | Readek | 1:44.54 | 0 | 0 |
| 234 | Zephyr | 1:44.59 | 0 | 0 |
| 235 | Kenaz | 1:44.60 | 0 | 0 |
| 236 | Iris | 1:44.65 | 0 | 0 |
| 237 | Kinix | 1:44.83 | 0 | 0 |
| 238 | miro. | 1:44.89 | 0 | 0 |
| 239 | Snakefalls | 1:44.99 | 0 | 0 |
| 239 | Moongurt | 1:44.99 | 0 | 0 |
| 241 | nepvee | 1:45.25 | 0 | 0 |
| 241 | Kierahn_ | 1:45.25 | 0 | 0 |
| 243 | GaiaGaiyus | 1:45.37 | 0 | 0 |
| 244 | Pardalote | 1:45.40 | 0 | 0 |
| 245 | imxRaven | 1:45.50 | 0 | 0 |
| 246 | Weird Pumpkin | 1:45.51 | 0 | 0 |
| 247 | Lionkingview | 1:45.53 | 0 | 0 |
| 248 | BuzZoiD | 1:45.61 | 0 | 0 |
| 249 | Lore maker | 1:45.70 | 0 | 0 |
| 250 | danny1234331 | 1:45.71 | 0 | 0 |
| 251 | JaServus | 1:45.74 | 0 | 0 |
| 252 | Benji | 1:45.94 | 0 | 0 |
| 252 | mlk | 1:45.94 | 0 | 0 |
| 252 | AyyLmeow | 1:45.94 | 0 | 0 |
| 255 | Ribbitt | 1:45.97 | 0 | 0 |
| 256 | codythecoder | 1:46.04 | 0 | 0 |
| 257 | Sayrix | 1:46.63 | 0 | 0 |
| 258 | Your Werewolf GF | 1:46.72 | 0 | 0 |
| 259 | russ117 | 1:47.03 | 0 | 0 |
| 260 | Danielzan_10 | 1:47.10 | 0 | 0 |
| 261 | Ultimate Level 100 Vegan Wizard | 1:47.14 | 0 | 0 |
| 262 | Slicksand | 1:47.18 | 0 | 0 |
| 263 | Your Lad, Thin Richard | 1:47.26 | 0 | 0 |
| 264 | GekoKid | 1:47.32 | 0 | 0 |
| 265 | xanthousphoenix | 1:47.36 | 0 | 0 |
| 266 | G5TNo2486 | 1:47.37 | 0 | 0 |
| 267 | Goo4u | 1:47.42 | 0 | 0 |
| 268 | Taro | 1:47.65 | 0 | 0 |
| 269 | cptnbean | 1:47.67 | 0 | 0 |
| 270 | spires | 1:47.68 | 0 | 0 |
| 271 | Ozymandias | 1:47.73 | 0 | 0 |
| 272 | SparraNova | 1:47.85 | 0 | 0 |
| 273 | SmackinCheese | 1:47.98 | 0 | 0 |
| 274 | Neon_Shift | 1:48.07 | 0 | 0 |
| 275 | Garfield2611 | 1:48.10 | 0 | 0 |
| 275 | sparx041 | 1:48.10 | 0 | 0 |
| 277 | Parzival | 1:48.14 | 0 | 0 |
| 278 | King | 1:48.24 | 0 | 0 |
| 279 | ecco | 1:48.28 | 0 | 0 |
| 280 | Empyrrean | 1:48.64 | 0 | 0 |
| 281 | Ariiiii | 1:48.72 | 0 | 0 |
| 282 | Kashuzu | 1:48.79 | 0 | 0 |
| 283 | GrYs | 1:48.80 | 0 | 0 |
| 284 | WiseWolf27 | 1:49.13 | 0 | 0 |
| 285 | crozak | 1:49.23 | 0 | 0 |
| 286 | flo | 1:49.32 | 0 | 0 |
| 287 | Kerusos | 1:49.37 | 0 | 0 |
| 288 | itsukarine | 1:49.49 | 0 | 0 |
| 289 | Battle Banana Chris Handsom | 1:49.56 | 0 | 0 |
| 290 | Flaminglump | 1:49.65 | 0 | 0 |
| 290 | Raiden925 | 1:49.65 | 0 | 0 |
| 292 | Raven | 1:49.77 | 0 | 0 |
| 292 | < blank > | 1:49.77 | 0 | 0 |
| 294 | Queritz | 1:49.94 | 0 | 0 |
| 295 | Dorey348 | 1:49.96 | 0 | 0 |
| 296 | Mr. Bird | 1:50.07 | 0 | 0 |
| 297 | Slotherium | 1:50.14 | 0 | 0 |
| 298 | Bonsly24 | 1:50.34 | 0 | 0 |
| 299 | Jarek718 | 1:50.41 | 0 | 0 |
| 300 | heavylink2301 | 1:50.50 | 0 | 0 |
| 301 | BlacKat | 1:50.52 | 0 | 0 |
| 302 | Potted Mushroom | 1:50.63 | 0 | 0 |
| 303 | skuzzzy | 1:50.65 | 0 | 0 |
| 304 | torcht | 1:50.66 | 0 | 0 |
| 304 | concil | 1:50.66 | 0 | 0 |
| 306 | WR ParTwo | 1:50.67 | 0 | 0 |
| 307 | Shamus | 1:50.99 | 0 | 0 |
| 308 | James "Papa Het" Hetfield | 1:51.08 | 0 | 0 |
| 309 | Laryk | 1:51.12 | 0 | 0 |
| 310 | youtube vembress | 1:51.13 | 0 | 0 |
| 311 | Seschbee | 1:51.24 | 0 | 0 |
| 312 | Дядя Ваня | 1:51.47 | 0 | 0 |
| 313 | Tybalt the First | 1:51.50 | 0 | 0 |
| 314 | Valalala | 1:51.59 | 0 | 0 |
| 315 | Swizy | 1:51.77 | 0 | 0 |
| 316 | dreifachpunkt. | 1:52.16 | 0 | 0 |
| 317 | Lampshaede | 1:52.25 | 0 | 0 |
| 318 | DaHam | 1:52.33 | 0 | 0 |
| 319 | edc | 1:52.40 | 0 | 0 |
| 320 | Cyberpunk Ice Noodle | 1:52.49 | 0 | 0 |
| 321 | A̶͓̓z̷͓̍ũ̴̩r̷͔͐e̴ | 1:52.64 | 0 | 0 |
| 322 | PinesOfChaos | 1:52.73 | 0 | 0 |
| 323 | Sartha | 1:52.78 | 0 | 0 |
| 324 | Wispfire | 1:52.82 | 0 | 0 |
| 325 | Alaskalúpína | 1:52.86 | 0 | 0 |
| 326 | Sev | 1:53.01 | 0 | 0 |
| 327 | I Wonder What Ganon's Up To? | 1:53.07 | 0 | 0 |
| 328 | Moon | 1:53.27 | 0 | 0 |
| 328 | gp | 1:53.27 | 0 | 0 |
| 330 | Ultor | 1:53.47 | 0 | 0 |
| 331 | Siddey10 | 1:53.48 | 0 | 0 |
| 332 | Yak-Yo! | 1:53.53 | 0 | 0 |
| 333 | Epsilon_Knight | 1:53.58 | 0 | 0 |
| 334 | vorador2 | 1:53.70 | 0 | 0 |
| 335 | Corecii | 1:53.79 | 0 | 0 |
| 335 | sugoiangela | 1:53.79 | 0 | 0 |
| 337 | Ashton_bro | 1:53.81 | 0 | 0 |
| 338 | jan Peli | 1:53.92 | 0 | 0 |
| 339 | Spaceburger | 1:54.02 | 0 | 0 |
| 340 | LordBohne2 | 1:54.18 | 0 | 0 |
| 341 | khrisround2 | 1:54.23 | 0 | 0 |
| 342 | Dr. Diabetes | 1:54.29 | 0 | 0 |
| 343 | Spearmint | 1:54.31 | 0 | 0 |
| 344 | S.Kappelmann | 1:54.47 | 0 | 0 |
| 345 | O' The Iron E | 1:54.48 | 0 | 0 |
| 346 | Xenobyte | 1:54.57 | 0 | 0 |
| 347 | Luxora | 1:54.69 | 0 | 0 |
| 348 | Ara | 1:54.72 | 0 | 0 |
| 349 | Blahaj Blast | 1:54.73 | 0 | 0 |
| 350 | cocob4 | 1:54.79 | 0 | 0 |
| 351 | Spotfire | 1:54.95 | 0 | 0 |
| 352 | Misplaymaker | 1:54.99 | 0 | 0 |
| 353 | Pclone501 | 1:55.06 | 0 | 0 |
| 354 | Dante | 1:55.09 | 0 | 0 |
| 355 | Emerald_Pick | 1:55.10 | 0 | 0 |
| 356 | Boomer McGeezer | 1:55.35 | 0 | 0 |
| 357 | Da Doom Man | 1:55.39 | 0 | 0 |
| 358 | Goldbergenstein | 1:55.43 | 0 | 0 |
| 359 | HyperNova | 1:55.57 | 0 | 0 |
| 360 | EleventyB | 1:55.61 | 0 | 0 |
| 361 | Johnnino | 1:55.72 | 0 | 0 |
| 362 | rezzonating | 1:56.15 | 0 | 0 |
| 362 | Papa Scorch | 1:56.15 | 0 | 0 |
| 364 | Lex Solhaime | 1:56.56 | 0 | 0 |
| 364 | Onyon | 1:56.56 | 0 | 0 |
| 366 | WorkingChickenMH | 1:56.61 | 0 | 0 |
| 367 | Bananbulance | 1:56.75 | 0 | 0 |
| 368 | NoiceFox | 1:56.77 | 0 | 0 |
| 369 | baakstaff | 1:56.78 | 0 | 0 |
| 370 | ๋ | 1:57.01 | 0 | 0 |
| 370 | Mayhem | 1:57.01 | 0 | 0 |
| 372 | Natr | 1:57.11 | 0 | 0 |
| 373 | Hornsking | 1:57.29 | 0 | 0 |
| 374 | Reaster | 1:57.45 | 0 | 0 |
| 375 | Reconik | 1:57.79 | 0 | 0 |
| 376 | Keiyo | 1:57.86 | 0 | 0 |
| 376 | Sbev | 1:57.86 | 0 | 0 |
| 378 | Sensokaku | 1:57.90 | 0 | 0 |
| 379 | YoloMoth | 1:57.91 | 0 | 0 |
| 380 | JustB4DW0LF | 1:57.97 | 0 | 0 |
| 381 | Roggee | 1:58.04 | 0 | 0 |
| 382 | Seere | 1:58.07 | 0 | 0 |
| 383 | Leudic | 1:58.19 | 0 | 0 |
| 384 | Swayo | 1:58.55 | 0 | 0 |
| 385 | PlatinumAstra | 1:59.09 | 0 | 0 |
| 386 | Jacket | 1:59.14 | 0 | 0 |
| 387 | Ninja Squirel | 1:59.15 | 0 | 0 |
| 388 | Snyde | 1:59.17 | 0 | 0 |
| 389 | tawnted | 1:59.25 | 0 | 0 |
| 390 | Broonsbane | 1:59.30 | 0 | 0 |
| 391 | CasanovaFly94 | 1:59.33 | 0 | 0 |
| 392 | exai | 1:59.50 | 0 | 0 |
| 393 | HebiSuke | 1:59.53 | 0 | 0 |
| 394 | StrongBad | 1:59.54 | 0 | 0 |
| 395 | Megacrafter127 | 1:59.76 | 0 | 0 |
| 396 | fischpferd | 2:00.09 | 0 | 0 |
| 397 | pater riku | 2:00.32 | 0 | 0 |
| 398 | DROCHEPOLK | 2:00.33 | 0 | 0 |
| 399 | a&b | 2:00.50 | 0 | 0 |
| 400 | Oonga J Boonga | 2:00.53 | 0 | 0 |
| 401 | Spark | 2:00.65 | 0 | 0 |
| 402 | Astrolight | 2:00.74 | 0 | 0 |
| 403 | Leviticus Blue | 2:00.86 | 0 | 0 |
| 404 | Sin | 2:01.02 | 0 | 0 |
| 405 | Earthnuker | 2:01.07 | 0 | 0 |
| 406 | Lego™ Pipe-Bomb | 2:01.24 | 0 | 0 |
| 407 | FlyingToaster1 | 2:01.32 | 0 | 0 |
| 408 | Tavere | 2:01.75 | 0 | 0 |
| 409 | FrenchMeme | 2:01.94 | 0 | 0 |
| 410 | GOOSE SATAN! | 2:01.95 | 0 | 0 |
| 411 | Skippy Peanut Butter | 2:01.97 | 0 | 0 |
| 412 | DIE FLUUUUT KOMMT | 2:02.06 | 0 | 0 |
| 412 | Screws | 2:02.06 | 0 | 0 |
| 412 | ToiR | 2:02.06 | 0 | 0 |
| 415 | rbrules | 2:02.21 | 0 | 0 |
| 416 | SpicySpaceSnake | 2:02.34 | 0 | 0 |
| 417 | [BIT]SnepSpecialist | 2:02.56 | 0 | 0 |
| 418 | Mr Cartmenez | 2:02.62 | 0 | 0 |
| 419 | Jeats | 2:02.64 | 0 | 0 |
| 420 | SparkyCrusader | 2:02.72 | 0 | 0 |
| 421 | Pureception | 2:02.97 | 0 | 0 |
| 422 | Symon | 2:02.99 | 0 | 0 |
| 423 | MuRoRu | 2:03.05 | 0 | 0 |
| 423 | sizifov | 2:03.05 | 0 | 0 |
| 425 | Fushiggy | 2:03.09 | 0 | 0 |
| 426 | h3artl3ss362 | 2:03.11 | 0 | 0 |
| 427 | Sgt. Giclette | 2:03.30 | 0 | 0 |
| 428 | Yah Mo | 2:03.33 | 0 | 0 |
| 429 | Pan Nikt | 2:03.65 | 0 | 0 |
| 430 | LadyElixa | 2:04.10 | 0 | 0 |
| 431 | AdmiralTails | 2:04.14 | 0 | 0 |
| 432 | ant | 2:04.18 | 0 | 0 |
| 433 | JaimmyShine | 2:04.29 | 0 | 0 |
| 434 | krakentoa | 2:04.37 | 0 | 0 |
| 435 | popcorn14 | 2:04.46 | 0 | 0 |
| 436 | . | 2:04.84 | 0 | 0 |
| 437 | Thr | 2:04.88 | 0 | 0 |
| 438 | 2™ | 2:04.99 | 0 | 0 |
| 439 | Chaks | 2:05.06 | 0 | 0 |
| 440 | Gragzone | 2:05.13 | 0 | 0 |
| 441 | I need more boolets | 2:05.36 | 0 | 0 |
| 442 | Mr.Demosign | 2:05.42 | 0 | 0 |
| 443 | BluntButters | 2:05.55 | 0 | 0 |
| 444 | Ryuki | 2:05.60 | 0 | 0 |
| 445 | SIGSTACKFAULT | 2:05.81 | 0 | 0 |
| 446 | RL | 2:05.84 | 0 | 0 |
| 447 | AI-COM//SVRN | 2:05.93 | 0 | 0 |
| 448 | BumbleFunkMcGee | 2:06.12 | 0 | 0 |
| 449 | Icebound777 | 2:06.30 | 0 | 0 |
| 450 | EnderKill98 | 2:06.43 | 0 | 0 |
| 451 | Hayaweh | 2:06.59 | 0 | 0 |
| 452 | 16aroth6 | 2:06.90 | 0 | 0 |
| 453 | absurdich | 2:06.93 | 0 | 0 |
| 454 | North | 2:07.11 | 0 | 0 |
| 455 | Kamikaze901 | 2:07.14 | 0 | 0 |
| 455 | Raven | 2:07.14 | 0 | 0 |
| 457 | ErzoopaRTR | 2:07.45 | 0 | 0 |
| 458 | Mirianne | 2:07.68 | 0 | 0 |
| 459 | FriendlySwords | 2:07.84 | 0 | 0 |
| 460 | Birb | 2:07.90 | 0 | 0 |
| 461 | Lin | 2:08.03 | 0 | 0 |
| 462 | Blex | 2:08.10 | 0 | 0 |
| 463 | Zarkilor | 2:08.12 | 0 | 0 |
| 464 | Typhon | 2:08.22 | 0 | 0 |
| 465 | Niko | 2:08.38 | 0 | 0 |
| 466 | Phil_ | 2:08.44 | 0 | 0 |
| 467 | Mylexsi | 2:08.68 | 0 | 0 |
| 468 | Nyue | 2:08.72 | 0 | 0 |
| 469 | Etria | 2:09.07 | 0 | 0 |
| 470 | Me an intellectual | 2:09.33 | 0 | 0 |
| 471 | Mash | 2:09.45 | 0 | 0 |
| 472 | Big Chungus2010 | 2:09.50 | 0 | 0 |
| 473 | Eshael | 2:09.74 | 0 | 0 |
| 474 | SynfulShapeshifter | 2:09.79 | 0 | 0 |
| 475 | Seshiruseth | 2:09.92 | 0 | 0 |
| 476 | Jezo | 2:10.03 | 0 | 0 |
| 477 | Nephuxs | 2:10.10 | 0 | 0 |
| 477 | SoulsCommand | 2:10.10 | 0 | 0 |
| 479 | IfritDMC | 2:10.11 | 0 | 0 |
| 480 | Scarlet | 2:10.16 | 0 | 0 |
| 481 | [deleted] | 2:10.49 | 0 | 0 |
| 482 | TS_Mind_Swept | 2:10.54 | 0 | 0 |
| 483 | Embylles | 2:10.64 | 0 | 0 |
| 484 | Sperzieb00n | 2:10.65 | 0 | 0 |
| 485 | Gomorrha | 2:10.76 | 0 | 0 |
| 486 | Rudik | 2:10.85 | 0 | 0 |
| 487 | Sniwii | 2:11.34 | 0 | 0 |
| 488 | Crimson Blood | 2:11.42 | 0 | 0 |
| 489 | [REDACTED] | 2:11.62 | 0 | 0 |
| 490 | Cyxxus | 2:11.65 | 0 | 0 |
| 491 | Blexyde | 2:11.66 | 0 | 0 |
| 492 | Splat | 2:11.71 | 0 | 0 |
| 493 | DimitriOS | 2:11.81 | 0 | 0 |
| 494 | The Insomniac | 2:12.01 | 0 | 0 |
| 495 | Luna | 2:12.18 | 0 | 0 |
| 496 | Crubo | 2:12.23 | 0 | 0 |
| 497 | Buck | 2:12.32 | 0 | 0 |
| 498 | Neoblastz | 2:12.34 | 0 | 0 |
| 499 | JeffTheBruh | 2:12.42 | 0 | 0 |
| 500 | Jules | 2:12.51 | 0 | 0 |
| 501 | Skardan | 2:12.56 | 0 | 0 |
| 502 | SillySean | 2:12.91 | 0 | 0 |
| 503 | Blacky Stranger | 2:12.96 | 0 | 0 |
| 504 | Trek | 2:13.12 | 0 | 0 |
| 505 | Scoopta | 2:13.15 | 0 | 0 |
| 506 | MiniD | 2:13.53 | 0 | 0 |
| 507 | Out-of-shape-viking | 2:13.70 | 0 | 0 |
| 508 | Wizard the Wizard | 2:13.79 | 0 | 0 |
| 509 | Mezzopiano | 2:13.93 | 0 | 0 |
| 510 | Greenfire DX | 2:13.97 | 0 | 0 |
| 511 | Achiro | 2:14.11 | 0 | 0 |
| 512 | Afromation | 2:14.41 | 0 | 0 |
| 513 | Magic Spearmint | 2:14.45 | 0 | 0 |
| 514 | Well Shit | 2:14.70 | 0 | 0 |
| 515 | REHERC | 2:14.80 | 0 | 0 |
| 516 | Cheesus Crust (mono) | 2:14.87 | 0 | 0 |
| 517 | Boucoque | 2:14.89 | 0 | 0 |
| 518 | SUDOCIVID | 2:15.08 | 0 | 0 |
| 519 | Zeimeen | 2:15.21 | 0 | 0 |
| 520 | Tig_Togs | 2:15.39 | 0 | 0 |
| 521 | Myliaa | 2:15.40 | 0 | 0 |
| 522 | ahtnos | 2:15.77 | 0 | 0 |
| 523 | samson13 | 2:16.17 | 0 | 0 |
| 524 | TrickTrigger | 2:16.36 | 0 | 0 |
| 525 | Inzarin | 2:16.71 | 0 | 0 |
| 526 | Lorethys | 2:17.04 | 0 | 0 |
| 527 | BalsamicSteve | 2:17.25 | 0 | 0 |
| 527 | 『Akkusativ』 | 2:17.25 | 0 | 0 |
| 529 | Mar_Veloz | 2:17.35 | 0 | 0 |
| 530 | Caradog | 2:17.42 | 0 | 0 |
| 531 | SerapH | 2:17.50 | 0 | 0 |
| 532 | THE FINAL LOSER | 2:17.57 | 0 | 0 |
| 533 | AndreasSE93 | 2:17.67 | 0 | 0 |
| 534 | Mr. Beefy | 2:18.21 | 0 | 0 |
| 535 | eduborrelli | 2:18.38 | 0 | 0 |
| 536 | Arby | 2:18.41 | 0 | 0 |
| 537 | Hopes | 2:18.70 | 0 | 0 |
| 538 | Fushiii | 2:18.74 | 0 | 0 |
| 539 | passe_riviere | 2:19.00 | 0 | 0 |
| 540 | yumio | 2:19.21 | 0 | 0 |
| 541 | Cerberus14 | 2:19.47 | 0 | 0 |
| 542 | Sibsen | 2:19.62 | 0 | 0 |
| 543 | Kathumandu | 2:20.05 | 0 | 0 |
| 544 | Stripe Gurger | 2:20.51 | 0 | 0 |
| 545 | Decton | 2:20.60 | 0 | 0 |
| 546 | Ruinoterapevt | 2:20.71 | 0 | 0 |
| 547 | Cab | 2:20.79 | 0 | 0 |
| 548 | lunaxiu | 2:20.94 | 0 | 0 |
| 549 | .present; | 2:20.99 | 0 | 0 |
| 550 | Slip Phantom | 2:21.00 | 0 | 0 |
| 551 | Voltaic | 2:21.02 | 0 | 0 |
| 552 | geekgreg | 2:21.03 | 0 | 0 |
| 553 | Kai | 2:21.10 | 0 | 0 |
| 554 | Mejartion | 2:21.21 | 0 | 0 |
| 555 | WSBat | 2:21.43 | 0 | 0 |
| 556 | Bodacious Chugalug | 2:21.82 | 0 | 0 |
| 557 | MyzEffect | 2:21.83 | 0 | 0 |
| 558 | FifteenBread | 2:22.20 | 0 | 0 |
| 559 | Dyltra | 2:22.30 | 0 | 0 |
| 560 | DrPepperMan | 2:22.59 | 0 | 0 |
| 561 | Shade | 2:22.61 | 0 | 0 |
| 562 | RabbiT | 2:22.74 | 0 | 0 |
| 563 | Awivlin | 2:22.84 | 0 | 0 |
| 564 | Uganda Knuckles | 2:22.88 | 0 | 0 |
| 565 | Dust | 2:23.18 | 0 | 0 |
| 566 | Wolfy Neah | 2:23.35 | 0 | 0 |
| 567 | NIRV007 | 2:23.51 | 0 | 0 |
| 568 | Jay2a | 2:23.66 | 0 | 0 |
| 569 | 문경왕개미 | 2:23.70 | 0 | 0 |
| 570 | The First Door | 2:24.02 | 0 | 0 |
| 571 | The Withered Remnant Effigy | 2:24.13 | 0 | 0 |
| 572 | mike223 | 2:24.33 | 0 | 0 |
| 573 | Uncle Pep Pep | 2:24.70 | 0 | 0 |
| 574 | Viridian | 2:24.86 | 0 | 0 |
| 575 | Cinder_R0se | 2:25.02 | 0 | 0 |
| 576 | SuperRiderTH | 2:25.26 | 0 | 0 |
| 577 | TheWanderer05 | 2:25.39 | 0 | 0 |
| 578 | Phaserlight | 2:25.76 | 0 | 0 |
| 579 | desc | 2:25.82 | 0 | 0 |
| 580 | mos | 2:25.84 | 0 | 0 |
| 581 | Virus | 2:25.90 | 0 | 0 |
| 582 | Mr Elusive | 2:26.11 | 0 | 0 |
| 583 | [NR] Miyu012 | 2:26.22 | 0 | 0 |
| 584 | mokkli | 2:26.34 | 0 | 0 |
| 585 | Audity | 2:26.40 | 0 | 0 |
| 586 | Impatotec | 2:26.47 | 0 | 0 |
| 587 | PurpleSuede | 2:26.96 | 0 | 0 |
| 588 | Captain Grayson | 2:27.30 | 0 | 0 |
| 589 | guilherme giuseppe | 2:27.78 | 0 | 0 |
| 590 | AlveKatt | 2:27.90 | 0 | 0 |
| 591 | Aventurain | 2:28.21 | 0 | 0 |
| 592 | キタ一一(゚∀゚)一一!! | 2:28.61 | 0 | 0 |
| 593 | Shaka | 2:28.67 | 0 | 0 |
| 594 | ✂👌☜✌☼✂ | 2:29.59 | 0 | 0 |
| 595 | Grungus | 2:29.70 | 0 | 0 |
| 596 | SHAaD_Sicod | 2:29.85 | 0 | 0 |
| 597 | RKO! | 2:30.03 | 0 | 0 |
| 598 | Lofthouse | 2:30.14 | 0 | 0 |
| 599 | Toppincattin | 2:30.22 | 0 | 0 |
| 600 | Foxy Brownie | 2:30.47 | 0 | 0 |
| 601 | herz93 | 2:30.58 | 0 | 0 |
| 602 | onyxglow | 2:30.66 | 0 | 0 |
| 603 | Heliomachit | 2:30.80 | 0 | 0 |
| 604 | Sanay LOX | 2:31.19 | 0 | 0 |
| 605 | Bodom910 | 2:31.23 | 0 | 0 |
| 606 | Wolfe Procter | 2:31.53 | 0 | 0 |
| 607 | Canomi | 2:32.01 | 0 | 0 |
| 608 | Coopstar2323 | 2:32.89 | 0 | 0 |
| 609 | Nagrom | 2:32.95 | 0 | 0 |
| 610 | Erwan | 2:32.96 | 0 | 0 |
| 611 | Agent Starlight | 2:33.63 | 0 | 0 |
| 612 | Efflux | 2:34.00 | 0 | 0 |
| 613 | malevilend | 2:34.04 | 0 | 0 |
| 614 | Extreme Pajamas | 2:34.39 | 0 | 0 |
| 615 | Diabetis4life | 2:34.63 | 0 | 0 |
| 616 | astralFitz | 2:34.92 | 0 | 0 |
| 617 | Vortexesz | 2:35.14 | 0 | 0 |
| 618 | Zill | 2:35.76 | 0 | 0 |
| 618 | Missippi_Hippie | 2:35.76 | 0 | 0 |
| 620 | Rei | 2:35.77 | 0 | 0 |
| 621 | Sunaryt | 2:35.90 | 0 | 0 |
| 622 | Basement Security | 2:36.19 | 0 | 0 |
| 623 | ColbyJackCheese | 2:36.54 | 0 | 0 |
| 624 | Breezy ♠ | 2:36.84 | 0 | 0 |
| 625 | Razgriez | 2:37.09 | 0 | 0 |
| 626 | TeslaZar | 2:37.47 | 0 | 0 |
| 627 | Suffer | 2:37.63 | 0 | 0 |
| 628 | Omnipotent 𓂀 | 2:37.67 | 0 | 0 |
| 629 | JQB | 2:38.15 | 0 | 0 |
| 629 | RenTide4 | 2:38.15 | 0 | 0 |
| 631 | Tennebep | 2:38.44 | 0 | 0 |
| 632 | Zab | 2:38.53 | 0 | 0 |
| 633 | Eriol | 2:39.02 | 0 | 0 |
| 634 | HeliosMagi | 2:39.26 | 0 | 0 |
| 635 | Alder | 2:39.35 | 0 | 0 |
| 636 | AMexii | 2:39.36 | 0 | 0 |
| 637 | ataraxia.wav | 2:39.41 | 0 | 0 |
| 638 | Opprop | 2:39.53 | 0 | 0 |
| 639 | Nevorist | 2:39.58 | 0 | 0 |
| 640 | Khailz | 2:39.83 | 0 | 0 |
| 641 | Daijoubro | 2:40.03 | 0 | 0 |
| 642 | bmrc97 | 2:40.04 | 0 | 0 |
| 643 | Pizza Moonpie | 2:40.21 | 0 | 0 |
| 644 | Redrain100 | 2:40.47 | 0 | 0 |
| 645 | Starhorder | 2:40.67 | 0 | 0 |
| 646 | NoraNoShika | 2:40.73 | 0 | 0 |
| 647 | Kabach0rt | 2:41.01 | 0 | 0 |
| 648 | Ame | 2:41.31 | 0 | 0 |
| 649 | Archu | 2:41.61 | 0 | 0 |
| 650 | Dragnar The Meme God | 2:41.75 | 0 | 0 |
| 651 | jimjong1 | 2:41.94 | 0 | 0 |
| 652 | Ar7icP3nguin | 2:42.00 | 0 | 0 |
| 653 | A Live Studio Audience | 2:42.05 | 0 | 0 |
| 654 | Skimmy Fudge | 2:42.32 | 0 | 0 |
| 655 | Pinapl | 2:42.42 | 0 | 0 |
| 656 | TheViking | 2:42.63 | 0 | 0 |
| 657 | 204863 | 2:42.77 | 0 | 0 |
| 658 | HatCat, Oil Baron | 2:42.83 | 0 | 0 |
| 659 | blue42u | 2:42.94 | 0 | 0 |
| 660 | crazyjoerocks | 2:43.30 | 0 | 0 |
| 661 | Lliane | 2:43.54 | 0 | 0 |
| 662 | Ditzy_Set | 2:43.64 | 0 | 0 |
| 663 | Nah I'd win | 2:43.82 | 0 | 0 |
| 664 | Anvilanche | 2:43.85 | 0 | 0 |
| 665 | Mouldy Donut | 2:44.32 | 0 | 0 |
| 666 | MaruPig | 2:44.54 | 0 | 0 |
| 667 | Ellioty | 2:44.57 | 0 | 0 |
| 668 | Shiva Winter | 2:45.28 | 0 | 0 |
| 669 | Predator VII | 2:45.62 | 0 | 0 |
| 670 | Jakrabbit | 2:46.10 | 0 | 0 |
| 671 | WolfBoi | 2:46.24 | 0 | 0 |
| 672 | Wildclaw | 2:46.49 | 0 | 0 |
| 673 | ShadowM | 2:46.55 | 0 | 0 |
| 674 | Damo | 2:47.21 | 0 | 0 |
| 675 | Graviterium | 2:47.27 | 0 | 0 |
| 676 | Miinimusi | 2:47.34 | 0 | 0 |
| 677 | Phil | 2:47.82 | 0 | 0 |
| 678 | Paul E. Tician | 2:48.03 | 0 | 0 |
| 679 | CptBlaze | 2:48.18 | 0 | 0 |
| 680 | Ziiryu | 2:48.23 | 0 | 0 |
| 681 | Toochi | 2:48.39 | 0 | 0 |
| 682 | Lady Yuna Yosha | 2:48.87 | 0 | 0 |
| 683 | Greeny^ | 2:48.95 | 0 | 0 |
| 684 | CodeFlow | 2:49.27 | 0 | 0 |
| 685 | Magister Ludi | 2:50.84 | 0 | 0 |
| 686 | wes | 2:51.10 | 0 | 0 |
| 687 | Simon Evo | 2:51.43 | 0 | 0 |
| 688 | UncleJibJab | 2:51.77 | 0 | 0 |
| 689 | OverlordEgg | 2:51.80 | 0 | 0 |
| 690 | Lady Vira | 2:52.33 | 0 | 0 |
| 691 | delicious sandwich | 2:52.36 | 0 | 0 |
| 692 | Joeshi | 2:52.44 | 0 | 0 |
| 693 | Jack the Druid | 2:52.54 | 0 | 0 |
| 694 | BlackOnyx | 2:52.66 | 0 | 0 |
| 695 | Felynka | 2:52.89 | 0 | 0 |
| 696 | Simer_Soul | 2:52.90 | 0 | 0 |
| 697 | Reinforce Virta | 2:53.09 | 0 | 0 |
| 698 | shrümii | 2:54.55 | 0 | 0 |
| 699 | E2 | indykoning | 2:54.73 | 0 | 0 |
| 700 | hoppersthree | 2:55.34 | 0 | 0 |
| 701 | Pepper, Belle M.D. | 2:55.55 | 0 | 0 |
| 702 | LaCr0 | 2:55.75 | 0 | 0 |
| 703 | Bunzzy | 2:55.82 | 0 | 0 |
| 704 | Apocalyptic Bunny | 2:55.86 | 0 | 0 |
| 705 | SkyLightLilFox | 2:56.10 | 0 | 0 |
| 706 | nightclubpositive | 2:56.56 | 0 | 0 |
| 707 | Shrapnel Blatner | 2:56.86 | 0 | 0 |
| 708 | boujore | 2:57.01 | 0 | 0 |
| 709 | Vis | 2:57.21 | 0 | 0 |
| 710 | Doctor Disco | 2:57.34 | 0 | 0 |
| 711 | Alex | 2:57.68 | 0 | 0 |
| 712 | SickB | 2:58.36 | 0 | 0 |
| 713 | ClapYoHands | 2:58.55 | 0 | 0 |
| 714 | MistaHorse | 2:58.95 | 0 | 0 |
| 715 | Verity | 2:59.00 | 0 | 0 |
| 716 | ♛𝓢𝓶𝓲𝓚♛ | 2:59.14 | 0 | 0 |
| 717 | It's me Flowery | 2:59.53 | 0 | 0 |
| 718 | Poofoo | 2:59.62 | 0 | 0 |
| 719 | SC000TER | 3:00.00 | 0 | 0 |
| 720 | archdeco | 3:00.39 | 0 | 0 |
| 721 | Spark79 | 3:00.48 | 0 | 0 |
| 721 | johnchen40904 | 3:00.48 | 0 | 0 |
| 723 | DesHex | 3:02.14 | 0 | 0 |
| 724 | AlShMyRy1313 | 3:02.24 | 0 | 0 |
| 725 | Dango | 3:02.30 | 0 | 0 |
| 726 | ERIC STRIKE INCOMING | 3:02.34 | 0 | 0 |
| 727 | KittenettiK | 3:02.36 | 0 | 0 |
| 728 | GTNeon | 3:02.59 | 0 | 0 |
| 729 | NamedPlayer | 3:03.65 | 0 | 0 |
| 730 | Galaxic | 3:03.75 | 0 | 0 |
| 731 | BroomKnight | 3:04.05 | 0 | 0 |
| 732 | Loving Wolf | 3:04.31 | 0 | 0 |
| 733 | Zodijackyl Light | 3:04.35 | 0 | 0 |
| 734 | J-Side | 3:04.70 | 0 | 0 |
| 735 | bios | 3:05.04 | 0 | 0 |
| 736 | Icetigerv | 3:05.78 | 0 | 0 |
| 737 | Rázzer | 3:06.46 | 0 | 0 |
| 738 | xander | 3:06.50 | 0 | 0 |
| 739 | Rude | 3:07.01 | 0 | 0 |
| 740 | Vueko | 3:07.17 | 0 | 0 |
| 741 | Camyx | 3:07.72 | 0 | 0 |
| 742 | Big Milk | 3:07.84 | 0 | 0 |
| 743 | Vyneci | 3:08.34 | 0 | 0 |
| 744 | BluePlays | 3:08.45 | 0 | 0 |
| 745 | Chromnostic | 3:08.89 | 0 | 0 |
| 746 | Aguadracon | 3:10.19 | 0 | 0 |
| 747 | Patches | 3:11.19 | 0 | 0 |
| 748 | ⒸⓇⓈ [இڿڰۣ---] =^,^= | 3:11.38 | 0 | 0 |
| 749 | saadedinet | 3:11.50 | 0 | 0 |
| 750 | KLABOEM | 3:12.19 | 0 | 0 |
| 751 | Red Sasori | 3:13.23 | 0 | 0 |
| 752 | Meat Cyclist | 3:13.64 | 0 | 0 |
| 753 | Najred | 3:14.31 | 0 | 0 |
| 754 | Torja! | 3:14.49 | 0 | 0 |
| 755 | AnonyBunny | 3:14.92 | 0 | 0 |
| 756 | Zane Wuffy | 3:15.04 | 0 | 0 |
| 757 | RjH2 | 3:15.61 | 0 | 0 |
| 758 | Calcarious | 3:15.86 | 0 | 0 |
| 759 | Xaiux | 3:16.03 | 0 | 0 |
| 760 | AVeryTastyCactus | 3:16.52 | 0 | 0 |
| 761 | Hamster | 3:16.73 | 0 | 0 |
| 762 | SiLeX | 3:16.74 | 0 | 0 |
| 763 | Vash the Stampede | 3:17.30 | 0 | 0 |
| 764 | Squrbles | 3:17.84 | 0 | 0 |
| 765 | SmolSucc | 3:17.88 | 0 | 0 |
| 766 | Foul Energy | 3:18.23 | 0 | 0 |
| 767 | Fugashi | 3:18.69 | 0 | 0 |
| 768 | Oidachü | 3:18.71 | 0 | 0 |
| 769 | Dekoa | 3:19.38 | 0 | 0 |
| 770 | Abcron | 3:20.84 | 0 | 0 |
| 771 | Mythic | 3:22.04 | 0 | 0 |
| 772 | Mega Mike 70 | 3:22.81 | 0 | 0 |
| 773 | Bubwubster | 3:23.40 | 0 | 0 |
| 774 | Tesselode | 3:23.66 | 0 | 0 |
| 775 | crazycrayfish | 3:23.71 | 0 | 0 |
| 776 | Aldebaran | 3:24.08 | 0 | 0 |
| 777 | alkiholl | 3:24.64 | 0 | 0 |
| 778 | Zenixic | 3:25.24 | 0 | 0 |
| 779 | RoxScout | 3:25.42 | 0 | 0 |
| 780 | Ashen | 3:26.30 | 0 | 0 |
| 781 | Wayward Dragon | 3:26.38 | 0 | 0 |
| 782 | Pixelbo | 3:26.41 | 0 | 0 |
| 783 | Bunker475 | 3:26.50 | 0 | 0 |
| 784 | tigerchef123 | 3:26.61 | 0 | 0 |
| 785 | one singular jerboa | 3:26.66 | 0 | 0 |
| 786 | SickoFlowmingo | 3:27.45 | 0 | 0 |
| 787 | Zalky | 3:29.00 | 0 | 0 |
| 788 | Puppygirl!! | 3:31.08 | 0 | 0 |
| 789 | C4tch | 3:31.78 | 0 | 0 |
| 790 | byanymeansnecessary | 3:31.85 | 0 | 0 |
| 791 | Toats | 3:33.39 | 0 | 0 |
| 792 | Caducifolio | 3:33.84 | 0 | 0 |
| 793 | BlvckMoonlight | 3:34.21 | 0 | 0 |
| 794 | Velimor | 3:34.33 | 0 | 0 |
| 795 | Loreckine | 3:36.69 | 0 | 0 |
| 796 | MPR03a | 3:38.10 | 0 | 0 |
| 797 | American Agent | 3:39.51 | 0 | 0 |
| 798 | KingSpammerNerd | 3:40.64 | 0 | 0 |
| 799 | klfaf | 3:41.29 | 0 | 0 |
| 800 | KALVORNE | 3:41.34 | 0 | 0 |
| 801 | SyringeTip | 3:41.38 | 0 | 0 |
| 802 | Vexo | davidmc971 | 3:42.04 | 0 | 0 |
| 803 | RABOAN | 3:42.67 | 0 | 0 |
| 804 | Minefreak6633 | 3:42.74 | 0 | 0 |
| 805 | Eddy | 3:42.99 | 0 | 0 |
| 806 | elder matthew | 3:45.26 | 0 | 0 |
| 807 | Kenbomb | 3:45.53 | 0 | 0 |
| 808 | Frit_/x/ | 3:47.19 | 0 | 0 |
| 809 | Lee | 3:48.24 | 0 | 0 |
| 810 | Dracheron | 3:48.26 | 0 | 0 |
| 811 | screampie | 3:48.71 | 0 | 0 |
| 812 | upstartbear | 3:48.82 | 0 | 0 |
| 813 | Jeff The NERD | 3:49.14 | 0 | 0 |
| 814 | Pookie | 3:49.56 | 0 | 0 |
| 815 | roatigern | 3:52.32 | 0 | 0 |
| 816 | sevenofnone | 3:52.45 | 0 | 0 |
| 817 | Cubed_Mayhem | 3:52.60 | 0 | 0 |
| 818 | The Moonlit Arts | 3:53.11 | 0 | 0 |
| 819 | smashingdrop17 | 3:53.42 | 0 | 0 |
| 820 | Tararity | 3:53.43 | 0 | 0 |
| 821 | goth monster | 3:54.78 | 0 | 0 |
| 822 | Luchiki-Luchiki | 3:57.45 | 0 | 0 |
| 823 | potionblue | 3:57.66 | 0 | 0 |
| 824 | JLDAGH | 3:59.09 | 0 | 0 |
| 825 | VencirGan | 4:01.22 | 0 | 0 |
| 826 | William "Black Fox" Hunter | 4:03.65 | 0 | 0 |
| 827 | Velvet33 | 4:05.30 | 0 | 0 |
| 828 | Yipp | 4:07.60 | 0 | 0 |
| 829 | badyherz | 4:07.93 | 0 | 0 |
| 830 | ThanksForNothing | 4:08.92 | 0 | 0 |
| 831 | sampeel | 4:09.02 | 0 | 0 |
| 832 | 76561198057281750 | 4:10.12 | 0 | 0 |
| 833 | Just James | 4:12.58 | 0 | 0 |
| 834 | majesticspace | 4:13.34 | 0 | 0 |
| 835 | cas | 4:13.85 | 0 | 0 |
| 836 | Poi | 4:16.34 | 0 | 0 |
| 837 | Zacktacular | 4:17.21 | 0 | 0 |
| 838 | Murk | 4:18.10 | 0 | 0 |
| 839 | Yoshuga | 4:18.34 | 0 | 0 |
| 840 | Dacove | 4:23.57 | 0 | 0 |
| 841 | Tizzu | 4:23.84 | 0 | 0 |
| 842 | Doon | 4:24.80 | 0 | 0 |
| 843 | el0c | 4:26.00 | 0 | 0 |
| 844 | Demarcus Cousins | 4:27.88 | 0 | 0 |
| 845 | lord_astfgl | 4:29.69 | 0 | 0 |
| 846 | Anerix (Paradox) Cormin Quanadol | 4:30.53 | 0 | 0 |
| 847 | C011iD3R | 4:35.48 | 0 | 0 |
| 848 | aro3o6 | 4:36.55 | 0 | 0 |
| 849 | captainleam | 4:36.57 | 0 | 0 |
| 850 | Moîze | 4:37.62 | 0 | 0 |
| 851 | Hudbus | 4:37.92 | 0 | 0 |
| 852 | grzhan | 4:40.17 | 0 | 0 |
| 853 | maxgameplayer | 4:41.83 | 0 | 0 |
| 854 | Mx | 4:45.77 | 0 | 0 |
| 855 | ghouls | 4:46.82 | 0 | 0 |
| 856 | -Kite-Man- | 4:47.37 | 0 | 0 |
| 857 | Sarude | 4:55.69 | 0 | 0 |
| 858 | [deleted] | 4:58.32 | 0 | 0 |
| 859 | Zephyr | 4:58.61 | 0 | 0 |
| 860 | Eggs Benedict | 4:58.97 | 0 | 0 |
| 861 | Shippel | 4:59.95 | 0 | 0 |
| 862 | ElmoWasHere | 5:00.22 | 0 | 0 |
| 863 | PowerLay | 5:00.77 | 0 | 0 |
| 864 | Swazzowas | 5:01.63 | 0 | 0 |
| 865 | koifishi | 5:03.23 | 0 | 0 |
| 866 | Biolume_Eater | 5:04.03 | 0 | 0 |
| 867 | meise | 5:06.51 | 0 | 0 |
| 868 | DasGerippe | 5:08.30 | 0 | 0 |
| 869 | Jake Chillenhaal | 5:11.51 | 0 | 0 |
| 870 | Marshbaby | 5:12.03 | 0 | 0 |
| 871 | Loot Hunter | 5:12.68 | 0 | 0 |
| 872 | Nightbrand | 5:13.70 | 0 | 0 |
| 873 | ⛧CR4CKERS⛧ | 5:15.58 | 0 | 0 |
| 874 | Space Rhinoceros | 5:20.56 | 0 | 0 |
| 875 | Medal | 5:21.67 | 0 | 0 |
| 876 | Maugan Ra | 5:29.01 | 0 | 0 |
| 877 | shocktiming | 5:29.75 | 0 | 0 |
| 878 | Razand | 5:32.82 | 0 | 0 |
| 879 | The Man With No Time | 5:36.01 | 0 | 0 |
| 880 | cerberus❤ | 5:42.75 | 0 | 0 |
| 881 | Ace Combo | 5:43.22 | 0 | 0 |
| 882 | TOM!!!! | 5:43.29 | 0 | 0 |
| 883 | echo | 5:43.60 | 0 | 0 |
| 884 | redtpx | 5:48.10 | 0 | 0 |
| 885 | Hollow_sorroW | 5:51.28 | 0 | 0 |
| 886 | Psychopathstar | 5:54.91 | 0 | 0 |
| 887 | CheesePimp | 6:12.96 | 0 | 0 |
| 888 | Jakl635 | 6:30.74 | 0 | 0 |
| 889 | thefierce | 6:33.62 | 0 | 0 |
| 890 | ALIENMAN | 6:38.19 | 0 | 0 |
| 891 | davislb2 | 6:47.18 | 0 | 0 |
| 892 | blue | 7:01.16 | 0 | 0 |
| 893 | Lengray | 7:05.15 | 0 | 0 |
| 894 | frankzirk | 7:22.24 | 0 | 0 |
| 895 | Kamen Shrimper | 8:39.92 | 0 | 0 |
HoldGrip